Time;durP1;ratioP1;P1;durP2;ratioP2;P2;SDS_P1;SDS_P2;PMS_P1;PMS_P2;Temp;Humidity;BMP_temperature;BMP_pressure;BME280_temperature;BME280_humidity;BME280_pressure;Samples;Min_cycle;Max_cycle;Signal;HPM_P1;HPM_P2
2022/09/15 00:00:21;;;;;;;;;;;24.20;55.40;;;;;;484349;246;1133;-73
2022/09/15 00:02:22;;;;;;;;;;;24.10;55.40;;;;;;484316;246;1149;-73
2022/09/15 00:04:24;;;;;;;;;;;24.20;55.40;;;;;;484590;246;1184;-73
2022/09/15 00:06:25;;;;;;;;;;;24.10;55.40;;;;;;484479;246;1116;-73
2022/09/15 00:08:26;;;;;;;;;;;24.10;55.50;;;;;;484295;246;1163;-73
2022/09/15 00:10:28;;;;;;;;;;;24.10;55.60;;;;;;484348;246;1170;-73
2022/09/15 00:12:29;;;;;;;;;;;24.00;55.60;;;;;;484302;246;1083;-73
2022/09/15 00:14:30;;;;;;;;;;;24.10;55.60;;;;;;484286;246;1217;-73
2022/09/15 00:16:32;;;;;;;;;;;24.10;55.50;;;;;;484250;246;1185;-73
2022/09/15 00:18:33;;;;;;;;;;;24.10;55.50;;;;;;484442;246;2172;-74
2022/09/15 00:20:34;;;;;;;;;;;24.00;55.50;;;;;;484541;246;1115;-73
2022/09/15 00:22:36;;;;;;;;;;;24.00;55.50;;;;;;484340;242;1185;-74
2022/09/15 00:24:37;;;;;;;;;;;24.00;55.60;;;;;;484417;246;1181;-73
2022/09/15 00:26:38;;;;;;;;;;;24.00;55.60;;;;;;484299;246;1183;-73
2022/09/15 00:28:40;;;;;;;;;;;24.00;55.60;;;;;;484276;246;1172;-73
2022/09/15 00:30:41;;;;;;;;;;;24.00;55.60;;;;;;484247;246;1215;-73
2022/09/15 00:32:42;;;;;;;;;;;24.00;55.70;;;;;;484457;246;1299;-73
2022/09/15 00:34:44;;;;;;;;;;;24.00;55.60;;;;;;484265;246;1306;-73
2022/09/15 00:36:45;;;;;;;;;;;24.00;55.60;;;;;;484383;246;1142;-73
2022/09/15 00:38:46;;;;;;;;;;;23.90;55.60;;;;;;484247;246;2195;-73
2022/09/15 00:40:48;;;;;;;;;;;24.00;55.50;;;;;;484404;246;1127;-73
2022/09/15 00:42:49;;;;;;;;;;;24.00;55.40;;;;;;484310;246;1213;-73
2022/09/15 00:44:50;;;;;;;;;;;24.00;55.50;;;;;;484458;246;1114;-73
2022/09/15 00:46:52;;;;;;;;;;;24.00;55.40;;;;;;484301;246;1165;-73
2022/09/15 00:48:53;;;;;;;;;;;24.00;55.40;;;;;;484273;246;1291;-73
2022/09/15 00:50:54;;;;;;;;;;;24.00;55.50;;;;;;484288;246;1203;-73
2022/09/15 00:52:56;;;;;;;;;;;23.90;55.50;;;;;;484297;246;1129;-73
2022/09/15 00:54:57;;;;;;;;;;;24.00;55.50;;;;;;484275;246;1136;-73
2022/09/15 00:56:59;;;;;;;;;;;23.90;55.50;;;;;;484293;246;1242;-73
2022/09/15 00:59:00;;;;;;;;;;;23.90;55.60;;;;;;484362;246;2204;-73
2022/09/15 01:01:01;;;;;;;;;;;23.90;55.50;;;;;;484447;246;1205;-73
2022/09/15 01:03:03;;;;;;;;;;;24.00;55.50;;;;;;484490;246;1224;-73
2022/09/15 01:05:04;;;;;;;;;;;23.90;55.60;;;;;;484430;246;1177;-73
2022/09/15 01:07:05;;;;;;;;;;;23.90;55.60;;;;;;484328;246;1184;-73
2022/09/15 01:09:07;;;;;;;;;;;23.90;55.50;;;;;;484244;246;1126;-73
2022/09/15 01:11:08;;;;;;;;;;;23.90;55.50;;;;;;484363;246;1142;-73
2022/09/15 01:13:09;;;;;;;;;;;23.90;55.50;;;;;;484285;246;1118;-73
2022/09/15 01:15:11;;;;;;;;;;;23.90;55.50;;;;;;484265;246;1154;-73
2022/09/15 01:17:12;;;;;;;;;;;23.90;55.50;;;;;;484269;246;2152;-73
2022/09/15 01:19:13;;;;;;;;;;;23.80;55.50;;;;;;484312;246;1164;-73
2022/09/15 01:21:16;;;;;;;;;;;23.90;55.60;;;;;;484261;246;1291;-74
2022/09/15 01:23:16;;;;;;;;;;;23.80;55.60;;;;;;484146;246;1478;-73
2022/09/15 01:25:17;;;;;;;;;;;23.80;55.60;;;;;;484361;246;1195;-73
2022/09/15 01:27:19;;;;;;;;;;;23.70;55.60;;;;;;484257;246;1191;-74
2022/09/15 01:29:20;;;;;;;;;;;23.70;55.70;;;;;;484288;243;1111;-73
2022/09/15 01:31:21;;;;;;;;;;;23.70;55.80;;;;;;484439;246;1279;-73
2022/09/15 01:33:23;;;;;;;;;;;23.70;55.80;;;;;;484259;246;1209;-73
2022/09/15 01:35:24;;;;;;;;;;;23.70;55.70;;;;;;484427;246;1184;-73
2022/09/15 01:37:25;;;;;;;;;;;23.70;55.60;;;;;;484732;246;2140;-73
2022/09/15 01:39:27;;;;;;;;;;;23.70;55.70;;;;;;484273;246;1186;-73
2022/09/15 01:41:28;;;;;;;;;;;23.70;55.70;;;;;;484336;246;1141;-73
2022/09/15 01:43:29;;;;;;;;;;;23.70;55.70;;;;;;484285;246;1217;-73
2022/09/15 01:45:31;;;;;;;;;;;23.70;55.70;;;;;;484242;246;1147;-73
2022/09/15 01:47:32;;;;;;;;;;;23.70;55.70;;;;;;484570;243;1245;-73
2022/09/15 01:49:33;;;;;;;;;;;23.70;55.60;;;;;;484251;246;1290;-73
2022/09/15 01:51:35;;;;;;;;;;;23.70;55.50;;;;;;484696;246;1131;-73
2022/09/15 01:53:36;;;;;;;;;;;23.70;55.70;;;;;;484302;246;1159;-74
2022/09/15 01:55:37;;;;;;;;;;;23.60;55.70;;;;;;484313;246;1154;-74
2022/09/15 01:57:39;;;;;;;;;;;23.60;55.70;;;;;;484387;246;2199;-74
2022/09/15 01:59:40;;;;;;;;;;;23.60;55.70;;;;;;484328;246;1136;-74
2022/09/15 02:01:44;;;;;;;;;;;23.70;55.60;;;;;;484392;246;1167;-73
2022/09/15 02:03:43;;;;;;;;;;;23.70;55.50;;;;;;484160;246;1481;-73
2022/09/15 02:05:46;;;;;;;;;;;23.60;55.50;;;;;;484487;246;1116;-73
2022/09/15 02:07:46;;;;;;;;;;;23.70;55.60;;;;;;484187;246;1602;-73
2022/09/15 02:09:48;;;;;;;;;;;23.60;55.60;;;;;;484329;246;1201;-73
2022/09/15 02:11:51;;;;;;;;;;;23.60;55.70;;;;;;484322;246;1167;-73
2022/09/15 02:13:50;;;;;;;;;;;23.60;55.60;;;;;;484219;246;1444;-73
2022/09/15 02:15:51;;;;;;;;;;;23.60;55.60;;;;;;484363;246;1108;-74
2022/09/15 02:17:54;;;;;;;;;;;23.60;55.60;;;;;;484556;246;2247;-73
2022/09/15 02:19:54;;;;;;;;;;;23.60;55.70;;;;;;484236;246;1467;-73
2022/09/15 02:21:56;;;;;;;;;;;23.60;55.70;;;;;;484286;246;1342;-73
2022/09/15 02:23:57;;;;;;;;;;;23.50;55.70;;;;;;484483;246;1267;-73
2022/09/15 02:25:58;;;;;;;;;;;23.60;55.70;;;;;;484377;246;1393;-73
2022/09/15 02:27:59;;;;;;;;;;;23.60;55.70;;;;;;484314;246;1103;-74
2022/09/15 02:30:02;;;;;;;;;;;23.50;55.60;;;;;;484295;246;1122;-74
2022/09/15 02:32:03;;;;;;;;;;;23.60;55.60;;;;;;484442;246;1102;-74
2022/09/15 02:34:04;;;;;;;;;;;23.60;55.60;;;;;;484293;246;1135;-74
2022/09/15 02:36:05;;;;;;;;;;;23.60;55.50;;;;;;484426;246;1214;-74
2022/09/15 02:38:07;;;;;;;;;;;23.60;55.50;;;;;;484307;246;2195;-74
2022/09/15 02:40:08;;;;;;;;;;;23.60;55.40;;;;;;484294;246;1952;-73
2022/09/15 02:42:10;;;;;;;;;;;23.60;55.40;;;;;;484281;246;1220;-73
2022/09/15 02:44:12;;;;;;;;;;;23.60;55.40;;;;;;484422;246;1266;-73
2022/09/15 02:46:12;;;;;;;;;;;23.50;55.40;;;;;;484270;246;1376;-74
2022/09/15 02:48:13;;;;;;;;;;;23.50;55.40;;;;;;484295;246;1147;-73
2022/09/15 02:50:15;;;;;;;;;;;23.50;55.50;;;;;;484258;246;1206;-73
2022/09/15 02:52:16;;;;;;;;;;;23.50;55.50;;;;;;484278;246;1167;-73
2022/09/15 02:54:17;;;;;;;;;;;23.50;55.40;;;;;;484336;246;1123;-73
2022/09/15 02:56:19;;;;;;;;;;;23.50;55.40;;;;;;484298;246;1218;-73
2022/09/15 02:58:20;;;;;;;;;;;23.60;55.40;;;;;;484257;246;2196;-73
2022/09/15 03:00:21;;;;;;;;;;;23.60;55.30;;;;;;484383;246;1181;-73
2022/09/15 03:02:23;;;;;;;;;;;23.50;55.30;;;;;;484297;246;1315;-73
2022/09/15 03:04:24;;;;;;;;;;;23.50;55.20;;;;;;484228;246;1304;-73
2022/09/15 03:06:27;;;;;;;;;;;23.50;55.20;;;;;;484377;246;1173;-73
2022/09/15 03:08:27;;;;;;;;;;;23.50;55.30;;;;;;484148;246;1422;-73
2022/09/15 03:10:28;;;;;;;;;;;23.50;55.40;;;;;;484334;246;1546;-73
2022/09/15 03:12:29;;;;;;;;;;;23.50;55.30;;;;;;484295;246;1273;-73
2022/09/15 03:14:31;;;;;;;;;;;23.50;55.30;;;;;;484408;246;1162;-73
2022/09/15 03:16:33;;;;;;;;;;;23.60;55.20;;;;;;484288;246;1160;-73
2022/09/15 03:18:34;;;;;;;;;;;23.60;55.10;;;;;;484501;246;2173;-73
2022/09/15 03:20:35;;;;;;;;;;;23.50;55.10;;;;;;484255;246;1224;-73
2022/09/15 03:22:37;;;;;;;;;;;23.50;55.20;;;;;;484305;246;1462;-74
2022/09/15 03:24:38;;;;;;;;;;;23.50;55.20;;;;;;484253;246;1108;-73
2022/09/15 03:26:39;;;;;;;;;;;23.50;55.20;;;;;;484421;246;1204;-73
2022/09/15 03:28:40;;;;;;;;;;;23.50;55.10;;;;;;484271;246;1209;-73
2022/09/15 03:30:42;;;;;;;;;;;23.50;55.20;;;;;;484335;246;1307;-73
2022/09/15 03:32:43;;;;;;;;;;;23.50;55.20;;;;;;484283;246;1321;-73
2022/09/15 03:34:44;;;;;;;;;;;23.40;55.20;;;;;;484268;246;1309;-73
2022/09/15 03:36:46;;;;;;;;;;;23.50;55.10;;;;;;484490;246;1198;-73
2022/09/15 03:38:47;;;;;;;;;;;23.50;55.20;;;;;;484242;246;2164;-74
2022/09/15 03:40:48;;;;;;;;;;;23.40;55.00;;;;;;484307;246;1185;-73
2022/09/15 03:42:50;;;;;;;;;;;23.40;55.10;;;;;;484269;242;1248;-73
2022/09/15 03:44:51;;;;;;;;;;;23.40;55.20;;;;;;484409;246;1191;-73
2022/09/15 03:46:52;;;;;;;;;;;23.40;55.10;;;;;;484424;246;1368;-73
2022/09/15 03:48:54;;;;;;;;;;;23.40;55.10;;;;;;484300;246;1203;-73
2022/09/15 03:50:55;;;;;;;;;;;23.40;55.10;;;;;;484354;246;1166;-73
2022/09/15 03:52:56;;;;;;;;;;;23.40;55.10;;;;;;484641;246;1110;-73
2022/09/15 03:54:58;;;;;;;;;;;23.40;55.00;;;;;;484281;246;1052;-73
2022/09/15 03:56:59;;;;;;;;;;;23.40;54.90;;;;;;484471;246;1148;-73
2022/09/15 03:59:01;;;;;;;;;;;23.40;54.80;;;;;;484268;246;2200;-73
2022/09/15 04:01:02;;;;;;;;;;;23.30;55.00;;;;;;484554;246;1142;-73
2022/09/15 04:03:04;;;;;;;;;;;23.30;55.00;;;;;;484397;246;1195;-73
2022/09/15 04:05:05;;;;;;;;;;;23.30;55.00;;;;;;484357;246;1104;-73
2022/09/15 04:07:07;;;;;;;;;;;23.30;54.90;;;;;;484311;246;1219;-73
2022/09/15 04:09:09;;;;;;;;;;;23.30;54.90;;;;;;484329;246;1135;-73
2022/09/15 04:11:10;;;;;;;;;;;23.30;54.80;;;;;;484265;246;1174;-73
2022/09/15 04:13:11;;;;;;;;;;;23.30;54.90;;;;;;484254;246;1181;-73
2022/09/15 04:15:12;;;;;;;;;;;23.30;54.90;;;;;;484201;246;1158;-73
2022/09/15 04:17:14;;;;;;;;;;;23.30;55.00;;;;;;484576;246;1145;-73
2022/09/15 04:19:15;;;;;;;;;;;23.20;55.00;;;;;;484289;246;2184;-73
2022/09/15 04:21:16;;;;;;;;;;;23.30;54.90;;;;;;484253;246;1161;-73
2022/09/15 04:23:18;;;;;;;;;;;23.30;54.90;;;;;;484295;246;1170;-73
2022/09/15 04:25:19;;;;;;;;;;;23.30;54.80;;;;;;484187;246;1471;-73
2022/09/15 04:27:20;;;;;;;;;;;23.30;54.80;;;;;;484320;246;1171;-73
2022/09/15 04:29:22;;;;;;;;;;;23.30;54.70;;;;;;484247;246;1256;-73
2022/09/15 04:31:23;;;;;;;;;;;23.40;54.70;;;;;;484312;246;1217;-73
2022/09/15 04:33:24;;;;;;;;;;;23.30;54.70;;;;;;484209;246;1274;-73
2022/09/15 04:35:25;;;;;;;;;;;23.40;54.70;;;;;;484234;246;1151;-73
2022/09/15 04:37:27;;;;;;;;;;;23.40;54.60;;;;;;484087;246;1117;-73
2022/09/15 04:39:28;;;;;;;;;;;23.40;54.70;;;;;;484189;246;2184;-73
2022/09/15 04:41:29;;;;;;;;;;;23.40;54.70;;;;;;484144;246;1345;-73
2022/09/15 04:43:31;;;;;;;;;;;23.40;54.60;;;;;;484186;246;1180;-73
2022/09/15 04:45:32;;;;;;;;;;;23.40;54.70;;;;;;484186;246;1183;-73
2022/09/15 04:47:34;;;;;;;;;;;23.40;54.80;;;;;;484182;246;1333;-73
2022/09/15 04:49:35;;;;;;;;;;;23.40;54.60;;;;;;484196;246;1135;-73
2022/09/15 04:51:36;;;;;;;;;;;23.50;54.50;;;;;;484209;246;1114;-73
2022/09/15 04:53:38;;;;;;;;;;;23.40;54.50;;;;;;484285;246;1165;-73
2022/09/15 04:55:39;;;;;;;;;;;23.40;54.60;;;;;;484154;246;1172;-73
2022/09/15 04:57:40;;;;;;;;;;;23.40;54.60;;;;;;484120;246;1380;-73
2022/09/15 04:59:42;;;;;;;;;;;23.40;54.60;;;;;;484515;246;2195;-73
2022/09/15 05:01:43;;;;;;;;;;;23.40;54.60;;;;;;484261;246;1127;-73
2022/09/15 05:03:45;;;;;;;;;;;23.30;54.70;;;;;;484199;246;1380;-73
2022/09/15 05:05:46;;;;;;;;;;;23.30;54.70;;;;;;484132;246;1429;-73
2022/09/15 05:07:47;;;;;;;;;;;23.30;54.70;;;;;;484292;246;1074;-73
2022/09/15 05:09:48;;;;;;;;;;;23.30;54.60;;;;;;484293;246;1119;-73
2022/09/15 05:11:50;;;;;;;;;;;23.30;54.60;;;;;;484217;246;1178;-73
2022/09/15 05:13:51;;;;;;;;;;;23.30;54.50;;;;;;484153;246;1138;-73
2022/09/15 05:15:52;;;;;;;;;;;23.30;54.60;;;;;;484239;246;1117;-73
2022/09/15 05:17:53;;;;;;;;;;;23.30;54.70;;;;;;484170;246;1103;-73
2022/09/15 05:19:55;;;;;;;;;;;23.30;54.60;;;;;;484225;246;2188;-73
2022/09/15 05:21:56;;;;;;;;;;;23.40;54.60;;;;;;484213;246;1145;-73
2022/09/15 05:23:57;;;;;;;;;;;23.30;54.60;;;;;;484172;246;1114;-73
2022/09/15 05:25:59;;;;;;;;;;;23.30;54.50;;;;;;484294;246;1080;-73
2022/09/15 05:28:00;;;;;;;;;;;23.40;54.40;;;;;;484243;246;1103;-73
2022/09/15 05:30:02;;;;;;;;;;;23.30;54.50;;;;;;484255;246;1142;-73
2022/09/15 05:32:03;;;;;;;;;;;23.30;54.50;;;;;;484326;246;1181;-73
2022/09/15 05:34:04;;;;;;;;;;;23.30;54.50;;;;;;484229;246;1173;-73
2022/09/15 05:36:06;;;;;;;;;;;23.30;54.50;;;;;;484195;246;1058;-73
2022/09/15 05:38:07;;;;;;;;;;;23.30;54.40;;;;;;484485;246;1182;-73
2022/09/15 05:40:08;;;;;;;;;;;23.30;54.40;;;;;;484251;246;2164;-73
2022/09/15 05:42:10;;;;;;;;;;;23.30;54.40;;;;;;484391;246;1108;-73
2022/09/15 05:44:11;;;;;;;;;;;23.30;54.30;;;;;;484282;246;1094;-73
2022/09/15 05:46:12;;;;;;;;;;;23.30;54.20;;;;;;484213;246;1072;-73
2022/09/15 05:48:14;;;;;;;;;;;23.40;54.20;;;;;;484515;246;1104;-73
2022/09/15 05:50:15;;;;;;;;;;;23.40;54.20;;;;;;484384;246;1138;-73
2022/09/15 05:52:16;;;;;;;;;;;23.30;54.20;;;;;;484328;246;1147;-73
2022/09/15 05:54:18;;;;;;;;;;;23.30;54.20;;;;;;484179;246;1194;-73
2022/09/15 05:56:19;;;;;;;;;;;23.30;54.30;;;;;;484216;246;1056;-73
2022/09/15 05:58:20;;;;;;;;;;;23.30;54.20;;;;;;484430;246;1062;-73
2022/09/15 06:00:22;;;;;;;;;;;23.30;54.30;;;;;;484235;246;2207;-73
2022/09/15 06:02:23;;;;;;;;;;;23.30;54.30;;;;;;484198;246;1273;-73
2022/09/15 06:04:24;;;;;;;;;;;23.20;54.30;;;;;;484206;246;1102;-73
2022/09/15 06:06:26;;;;;;;;;;;23.20;54.30;;;;;;484274;246;1086;-73
2022/09/15 06:08:27;;;;;;;;;;;23.20;54.30;;;;;;484200;246;1080;-73
2022/09/15 06:10:28;;;;;;;;;;;23.20;54.20;;;;;;484199;246;1098;-73
2022/09/15 06:12:30;;;;;;;;;;;23.20;54.10;;;;;;484218;246;1088;-73
2022/09/15 06:14:31;;;;;;;;;;;23.20;54.20;;;;;;484226;246;1131;-73
2022/09/15 06:16:32;;;;;;;;;;;23.10;54.30;;;;;;484185;246;1179;-73
2022/09/15 06:18:34;;;;;;;;;;;23.10;54.40;;;;;;484208;246;1148;-73
2022/09/15 06:20:35;;;;;;;;;;;23.10;54.30;;;;;;483996;246;2200;-73
2022/09/15 06:22:37;;;;;;;;;;;23.10;54.30;;;;;;484198;246;1217;-73
2022/09/15 06:24:38;;;;;;;;;;;23.20;54.30;;;;;;483960;246;1243;-73
2022/09/15 06:26:39;;;;;;;;;;;23.20;54.20;;;;;;484184;246;1094;-73
2022/09/15 06:28:41;;;;;;;;;;;23.20;54.10;;;;;;484003;246;1072;-73
2022/09/15 06:30:47;;;;;;;;;;;23.20;54.20;;;;;;484036;246;1159;-73
2022/09/15 06:32:44;;;;;;;;;;;23.20;54.20;;;;;;483759;246;1343;-73
2022/09/15 06:34:45;;;;;;;;;;;23.30;54.40;;;;;;484259;246;1226;-74
2022/09/15 06:36:46;;;;;;;;;;;23.30;54.40;;;;;;484120;246;1244;-73
2022/09/15 06:38:47;;;;;;;;;;;23.40;54.30;;;;;;484201;246;1132;-73
2022/09/15 06:40:49;;;;;;;;;;;23.50;54.30;;;;;;484038;246;2204;-73
2022/09/15 06:42:50;;;;;;;;;;;23.60;54.20;;;;;;483977;246;1157;-73
2022/09/15 06:44:52;;;;;;;;;;;23.80;54.20;;;;;;483950;246;1097;-73
2022/09/15 06:46:53;;;;;;;;;;;23.90;54.10;;;;;;483981;246;1263;-73
2022/09/15 06:48:54;;;;;;;;;;;23.80;54.20;;;;;;484103;246;1440;-73
2022/09/15 06:50:55;;;;;;;;;;;23.90;54.30;;;;;;483725;246;1129;-73
2022/09/15 06:52:57;;;;;;;;;;;24.10;54.10;;;;;;483690;246;1107;-73
2022/09/15 06:54:58;;;;;;;;;;;24.20;54.00;;;;;;483878;246;1085;-73
2022/09/15 06:56:59;;;;;;;;;;;24.30;53.90;;;;;;483605;246;1144;-73
2022/09/15 06:59:01;;;;;;;;;;;24.40;53.80;;;;;;483839;246;1188;-73
2022/09/15 07:01:02;;;;;;;;;;;24.40;53.60;;;;;;483860;246;2187;-73
2022/09/15 07:03:03;;;;;;;;;;;24.40;53.60;;;;;;483905;246;1203;-73
2022/09/15 07:05:05;;;;;;;;;;;24.30;53.60;;;;;;483861;246;1151;-73
2022/09/15 07:07:06;;;;;;;;;;;24.30;53.60;;;;;;483909;246;1174;-73
2022/09/15 07:09:08;;;;;;;;;;;24.20;53.70;;;;;;483938;246;1254;-73
2022/09/15 07:11:09;;;;;;;;;;;24.20;53.70;;;;;;484057;246;1186;-73
2022/09/15 07:13:10;;;;;;;;;;;24.10;53.80;;;;;;484035;246;1086;-74
2022/09/15 07:15:11;;;;;;;;;;;24.00;53.80;;;;;;483926;246;1150;-73
2022/09/15 07:17:13;;;;;;;;;;;24.10;53.80;;;;;;483962;246;1150;-73
2022/09/15 07:19:14;;;;;;;;;;;24.00;53.80;;;;;;483936;246;1121;-73
2022/09/15 07:21:15;;;;;;;;;;;23.90;53.80;;;;;;484095;246;2191;-74
2022/09/15 07:23:17;;;;;;;;;;;23.90;53.80;;;;;;483962;246;1212;-74
2022/09/15 07:25:18;;;;;;;;;;;23.90;53.80;;;;;;484074;246;1072;-74
2022/09/15 07:27:21;;;;;;;;;;;23.80;53.80;;;;;;484047;246;1161;-74
2022/09/15 07:29:21;;;;;;;;;;;23.80;53.80;;;;;;483929;246;1248;-74
2022/09/15 07:31:22;;;;;;;;;;;23.80;53.90;;;;;;484038;246;1115;-74
2022/09/15 07:33:24;;;;;;;;;;;23.80;53.90;;;;;;484012;246;1211;-74
2022/09/15 07:35:25;;;;;;;;;;;23.80;53.80;;;;;;484183;246;1158;-74
2022/09/15 07:37:26;;;;;;;;;;;23.80;53.80;;;;;;483905;246;1283;-74
2022/09/15 07:39:28;;;;;;;;;;;23.80;53.80;;;;;;484050;246;2172;-74
2022/09/15 07:41:29;;;;;;;;;;;23.70;53.80;;;;;;483954;246;1145;-74
2022/09/15 07:43:31;;;;;;;;;;;23.70;53.80;;;;;;483980;246;1128;-74
2022/09/15 07:45:32;;;;;;;;;;;23.70;53.70;;;;;;484052;246;1354;-74
2022/09/15 07:47:33;;;;;;;;;;;23.70;53.80;;;;;;483909;246;1101;-74
2022/09/15 07:49:34;;;;;;;;;;;23.70;53.80;;;;;;484044;246;1067;-74
2022/09/15 07:51:36;;;;;;;;;;;23.70;53.90;;;;;;484054;246;1233;-74
2022/09/15 07:53:37;;;;;;;;;;;23.80;53.80;;;;;;484044;246;1181;-74
2022/09/15 07:55:38;;;;;;;;;;;23.70;53.90;;;;;;484057;246;1214;-74
2022/09/15 07:57:40;;;;;;;;;;;23.60;54.00;;;;;;484083;246;1250;-74
2022/09/15 07:59:41;;;;;;;;;;;23.60;54.20;;;;;;483978;246;2188;-74
2022/09/15 08:01:42;;;;;;;;;;;23.60;54.10;;;;;;484083;246;1179;-74
2022/09/15 08:03:45;;;;;;;;;;;23.60;54.10;;;;;;484076;246;1123;-73
2022/09/15 08:05:46;;;;;;;;;;;23.60;54.10;;;;;;483984;246;1398;-74
2022/09/15 08:07:47;;;;;;;;;;;23.70;54.10;;;;;;484052;246;1311;-74
2022/09/15 08:09:48;;;;;;;;;;;23.70;54.00;;;;;;484015;246;1269;-74
2022/09/15 08:11:50;;;;;;;;;;;23.70;54.00;;;;;;483988;242;1175;-74
2022/09/15 08:13:51;;;;;;;;;;;23.80;54.00;;;;;;483934;246;1176;-74
2022/09/15 08:15:53;;;;;;;;;;;23.60;54.10;;;;;;483939;246;1128;-74
2022/09/15 08:17:54;;;;;;;;;;;23.70;54.20;;;;;;484125;246;1050;-74
2022/09/15 08:19:55;;;;;;;;;;;23.70;54.30;;;;;;484053;246;2192;-74
2022/09/15 08:21:57;;;;;;;;;;;23.70;54.30;;;;;;483999;246;1164;-74
2022/09/15 08:23:58;;;;;;;;;;;23.60;54.30;;;;;;483747;246;1219;-74
2022/09/15 08:25:59;;;;;;;;;;;23.60;54.40;;;;;;483966;246;1190;-73
2022/09/15 08:28:01;;;;;;;;;;;23.60;54.30;;;;;;483935;246;1088;-73
2022/09/15 08:30:02;;;;;;;;;;;23.70;54.40;;;;;;483887;246;1135;-73
2022/09/15 08:32:04;;;;;;;;;;;23.60;54.30;;;;;;483699;246;1127;-73
2022/09/15 08:34:05;;;;;;;;;;;23.60;54.20;;;;;;483908;246;1222;-73
2022/09/15 08:36:06;;;;;;;;;;;23.60;54.30;;;;;;483755;246;1406;-73
2022/09/15 08:38:07;;;;;;;;;;;23.70;54.20;;;;;;483806;246;1151;-74
2022/09/15 08:40:09;;;;;;;;;;;23.70;54.20;;;;;;483953;246;2207;-74
2022/09/15 08:42:10;;;;;;;;;;;23.70;54.30;;;;;;483693;246;1152;-74
2022/09/15 08:44:11;;;;;;;;;;;23.70;54.20;;;;;;484032;246;1242;-74
2022/09/15 08:46:13;;;;;;;;;;;23.70;54.30;;;;;;483778;246;1153;-74
2022/09/15 08:48:14;;;;;;;;;;;23.70;54.20;;;;;;483806;246;1202;-74
2022/09/15 08:50:15;;;;;;;;;;;23.80;54.20;;;;;;483827;246;1175;-74
2022/09/15 08:52:17;;;;;;;;;;;23.80;54.20;;;;;;483919;246;1134;-74
2022/09/15 08:54:18;;;;;;;;;;;23.80;54.20;;;;;;483792;246;1189;-73
2022/09/15 08:56:20;;;;;;;;;;;23.80;54.10;;;;;;483874;246;1100;-73
2022/09/15 08:58:21;;;;;;;;;;;23.80;54.10;;;;;;483813;246;1168;-73
2022/09/15 09:00:22;;;;;;;;;;;23.80;54.10;;;;;;483825;246;2192;-74
2022/09/15 09:02:24;;;;;;;;;;;23.80;54.20;;;;;;483797;246;1160;-74
2022/09/15 09:04:25;;;;;;;;;;;23.70;54.20;;;;;;483834;246;1318;-74
2022/09/15 09:06:26;;;;;;;;;;;23.70;54.30;;;;;;483905;246;1224;-73
2022/09/15 09:08:28;;;;;;;;;;;23.70;54.30;;;;;;483939;246;1191;-74
2022/09/15 09:10:29;;;;;;;;;;;23.70;54.30;;;;;;483949;246;1162;-74
2022/09/15 09:12:31;;;;;;;;;;;23.70;54.20;;;;;;483830;246;1200;-74
2022/09/15 09:14:32;;;;;;;;;;;23.70;54.20;;;;;;483840;246;1498;-74
2022/09/15 09:16:33;;;;;;;;;;;23.80;54.20;;;;;;483933;246;1194;-73
2022/09/15 09:18:35;;;;;;;;;;;23.80;54.30;;;;;;483969;246;1237;-74
2022/09/15 09:20:36;;;;;;;;;;;23.80;54.20;;;;;;484028;246;2187;-74
2022/09/15 09:22:37;;;;;;;;;;;23.80;54.30;;;;;;483871;246;1243;-74
2022/09/15 09:24:39;;;;;;;;;;;23.70;54.30;;;;;;483659;246;1187;-74
2022/09/15 09:26:40;;;;;;;;;;;23.70;54.30;;;;;;483794;246;1188;-73
2022/09/15 09:28:41;;;;;;;;;;;23.70;54.30;;;;;;484017;246;1179;-73
2022/09/15 09:30:43;;;;;;;;;;;23.70;54.30;;;;;;484022;246;1148;-73
2022/09/15 09:32:44;;;;;;;;;;;23.70;54.20;;;;;;483958;246;1153;-73
2022/09/15 09:34:45;;;;;;;;;;;23.70;54.10;;;;;;483917;246;1136;-73
2022/09/15 09:36:47;;;;;;;;;;;23.80;54.10;;;;;;483925;246;1160;-73
2022/09/15 09:38:48;;;;;;;;;;;23.70;54.20;;;;;;483840;246;1161;-73
2022/09/15 09:40:49;;;;;;;;;;;23.70;54.10;;;;;;483937;246;2196;-73
2022/09/15 09:42:51;;;;;;;;;;;23.70;54.00;;;;;;484043;246;1086;-74
2022/09/15 09:44:52;;;;;;;;;;;23.80;54.00;;;;;;483989;246;1162;-74
2022/09/15 09:46:53;;;;;;;;;;;23.80;54.00;;;;;;484025;246;1140;-74
2022/09/15 09:48:55;;;;;;;;;;;23.80;54.10;;;;;;484014;246;1185;-74
2022/09/15 09:50:56;;;;;;;;;;;23.80;54.00;;;;;;483831;246;1292;-74
2022/09/15 09:52:58;;;;;;;;;;;23.80;54.10;;;;;;484074;246;1143;-74
2022/09/15 09:54:59;;;;;;;;;;;23.80;54.10;;;;;;483989;246;1325;-74
2022/09/15 09:57:00;;;;;;;;;;;23.70;54.10;;;;;;483903;246;1200;-74
2022/09/15 09:59:02;;;;;;;;;;;23.80;54.20;;;;;;483955;246;1247;-73
2022/09/15 10:01:03;;;;;;;;;;;23.80;54.10;;;;;;483944;246;2204;-74
2022/09/15 10:03:04;;;;;;;;;;;23.70;54.10;;;;;;484014;246;1071;-74
2022/09/15 10:05:05;;;;;;;;;;;23.70;54.40;;;;;;484040;246;1218;-74
2022/09/15 10:07:07;;;;;;;;;;;23.70;54.30;;;;;;484048;246;1232;-74
2022/09/15 10:09:08;;;;;;;;;;;23.70;54.20;;;;;;483926;246;1300;-74
2022/09/15 10:11:09;;;;;;;;;;;23.70;54.10;;;;;;483935;246;1179;-73
2022/09/15 10:13:11;;;;;;;;;;;23.70;54.00;;;;;;484036;246;1142;-73
2022/09/15 10:15:12;;;;;;;;;;;23.80;54.20;;;;;;484160;246;1149;-74
2022/09/15 10:17:14;;;;;;;;;;;23.70;54.20;;;;;;484055;246;1232;-74
2022/09/15 10:19:14;;;;;;;;;;;23.80;54.20;;;;;;484050;246;1435;-74
2022/09/15 10:21:16;;;;;;;;;;;23.70;54.10;;;;;;483923;246;2203;-74
2022/09/15 10:23:17;;;;;;;;;;;23.70;54.10;;;;;;484201;246;1190;-74
2022/09/15 10:25:19;;;;;;;;;;;23.70;54.20;;;;;;484041;246;1111;-74
2022/09/15 10:27:20;;;;;;;;;;;23.70;54.10;;;;;;484040;246;1185;-73
2022/09/15 10:29:21;;;;;;;;;;;23.50;54.40;;;;;;484064;246;1086;-73
2022/09/15 10:31:22;;;;;;;;;;;23.30;55.00;;;;;;484082;246;1089;-74
2022/09/15 10:33:24;;;;;;;;;;;23.20;55.40;;;;;;484162;246;1275;-74
2022/09/15 10:35:25;;;;;;;;;;;23.10;55.80;;;;;;484080;246;1224;-74
2022/09/15 10:37:26;;;;;;;;;;;23.00;56.00;;;;;;484062;246;1103;-74
2022/09/15 10:39:28;;;;;;;;;;;23.00;56.10;;;;;;484001;246;1110;-74
2022/09/15 10:41:29;;;;;;;;;;;22.90;56.30;;;;;;484114;246;2152;-74
2022/09/15 10:43:31;;;;;;;;;;;22.90;56.50;;;;;;484111;246;1190;-74
2022/09/15 10:45:32;;;;;;;;;;;22.90;56.50;;;;;;484118;246;1107;-74
2022/09/15 10:47:33;;;;;;;;;;;22.80;56.50;;;;;;484156;246;1152;-74
2022/09/15 10:49:35;;;;;;;;;;;22.80;56.70;;;;;;484132;246;1142;-74
2022/09/15 10:51:36;;;;;;;;;;;22.70;56.90;;;;;;484058;246;1148;-74
2022/09/15 10:53:37;;;;;;;;;;;22.70;57.00;;;;;;484048;246;1185;-74
2022/09/15 10:55:39;;;;;;;;;;;22.70;57.10;;;;;;483967;246;1128;-74
2022/09/15 10:57:40;;;;;;;;;;;22.70;57.00;;;;;;484112;246;1265;-74
2022/09/15 10:59:43;;;;;;;;;;;22.70;57.10;;;;;;484046;246;1081;-74
2022/09/15 11:01:44;;;;;;;;;;;22.60;57.10;;;;;;483985;246;2196;-74
2022/09/15 11:03:45;;;;;;;;;;;22.60;57.10;;;;;;484073;246;1178;-73
2022/09/15 11:05:47;;;;;;;;;;;22.70;56.90;;;;;;483809;246;1140;-73
2022/09/15 11:07:48;;;;;;;;;;;22.60;56.90;;;;;;483989;246;1461;-73
2022/09/15 11:09:49;;;;;;;;;;;22.60;57.00;;;;;;483910;246;1059;-73
2022/09/15 11:11:50;;;;;;;;;;;22.50;57.30;;;;;;483946;246;1122;-73
2022/09/15 11:13:52;;;;;;;;;;;22.50;57.40;;;;;;484038;246;1084;-73
2022/09/15 11:15:53;;;;;;;;;;;22.50;57.30;;;;;;483931;246;1527;-73
2022/09/15 11:17:54;;;;;;;;;;;22.60;57.20;;;;;;483919;246;1069;-73
2022/09/15 11:19:56;;;;;;;;;;;22.50;57.10;;;;;;484120;246;1198;-74
2022/09/15 11:21:57;;;;;;;;;;;22.50;57.20;;;;;;483877;246;2173;-74
2022/09/15 11:23:58;;;;;;;;;;;22.50;57.30;;;;;;483963;246;1157;-74
2022/09/15 11:25:59;;;;;;;;;;;22.50;57.40;;;;;;483921;246;1340;-74
2022/09/15 11:28:01;;;;;;;;;;;22.50;57.50;;;;;;483767;246;1139;-73
2022/09/15 11:30:02;;;;;;;;;;;22.40;57.70;;;;;;483835;246;1144;-73
2022/09/15 11:32:04;;;;;;;;;;;22.40;57.90;;;;;;483819;246;1174;-74
2022/09/15 11:34:05;;;;;;;;;;;22.30;58.10;;;;;;484071;246;1121;-73
2022/09/15 11:36:06;;;;;;;;;;;22.30;58.00;;;;;;483808;246;1218;-74
2022/09/15 11:38:08;;;;;;;;;;;22.30;58.00;;;;;;483869;246;1213;-74
2022/09/15 11:40:09;;;;;;;;;;;22.40;58.00;;;;;;483457;246;1154;-74
2022/09/15 11:42:10;;;;;;;;;;;22.40;57.80;;;;;;483604;246;2192;-74
2022/09/15 11:44:12;;;;;;;;;;;22.40;57.70;;;;;;484185;246;1097;-74
2022/09/15 11:46:13;;;;;;;;;;;22.50;57.80;;;;;;483818;246;1195;-74
2022/09/15 11:48:14;;;;;;;;;;;22.50;57.70;;;;;;484038;246;1141;-74
2022/09/15 11:50:16;;;;;;;;;;;22.50;57.60;;;;;;483873;246;1183;-73
2022/09/15 11:52:19;;;;;;;;;;;22.50;57.70;;;;;;483903;246;1476;-73
2022/09/15 11:54:19;;;;;;;;;;;22.50;57.60;;;;;;483972;246;1361;-73
2022/09/15 11:56:21;;;;;;;;;;;22.60;57.40;;;;;;484067;246;1163;-73